Time;durP1;ratioP1;P1;durP2;ratioP2;P2;SDS_P1;SDS_P2;PMS_P1;PMS_P2;Temp;Humidity;BMP_temperature;BMP_pressure;BME280_temperature;BME280_humidity;BME280_pressure;Samples;Min_cycle;Max_cycle;Signal;HPM_P1;HPM_P2
2021/04/02 00:02:04;;;;;;;35.47;19.30;;;;;;;13.10;60.20;96890.03;5011686;28;20231;-68
2021/04/02 00:04:29;;;;;;;36.47;19.87;;;;;;;13.07;60.50;96893.16;4992954;28;20184;-68
2021/04/02 00:06:54;;;;;;;38.30;19.80;;;;;;;13.09;60.20;96886.66;5011579;28;20182;-68
2021/04/02 00:09:20;;;;;;;31.80;20.10;;;;;;;13.17;60.21;96888.88;5012070;28;20184;-69
2021/04/02 00:11:45;;;;;;;36.73;20.43;;;;;;;13.02;60.53;96887.84;5011667;28;20213;-68
2021/04/02 00:14:10;;;;;;;38.43;20.80;;;;;;;12.95;60.77;96882.72;4994592;28;20179;-68
2021/04/02 00:16:37;;;;;;;38.40;20.37;;;;;;;12.98;60.77;96886.72;5011953;28;20179;-68
2021/04/02 00:19:04;;;;;;;32.90;20.27;;;;;;;12.82;61.44;96889.09;5011738;28;20238;-68
2021/04/02 00:21:29;;;;;;;38.80;20.70;;;;;;;12.81;61.74;96891.97;5012466;28;20495;-69
2021/04/02 00:23:55;;;;;;;37.90;20.83;;;;;;;12.78;61.75;96890.59;5011402;28;20222;-70
2021/04/02 00:26:23;;;;;;;37.03;21.60;;;;;;;12.65;62.34;96887.50;4994113;28;20206;-68
2021/04/02 00:28:56;;;;;;;36.97;20.50;;;;;;;12.70;62.35;96879.69;5011265;28;20275;-67
2021/04/02 00:31:22;;;;;;;37.47;21.90;;;;;;;12.63;62.55;96881.66;5011561;28;20187;-68
2021/04/02 00:33:47;;;;;;;35.67;21.03;;;;;;;12.60;62.58;96877.66;5011580;28;20201;-68
2021/04/02 00:36:13;;;;;;;39.50;22.13;;;;;;;12.48;63.13;96871.69;5012209;28;20175;-68
2021/04/02 00:38:39;;;;;;;37.60;21.03;;;;;;;12.50;62.84;96875.66;5011454;28;20176;-68
2021/04/02 00:41:10;;;;;;;39.10;22.23;;;;;;;12.39;63.29;96868.63;5010822;28;20182;-69
2021/04/02 00:43:38;;;;;;;36.23;21.27;;;;;;;12.44;63.25;96871.34;5011428;28;20207;-68
2021/04/02 00:46:06;;;;;;;35.03;21.00;;;;;;;12.41;63.24;96876.28;5011317;28;20186;-68
2021/04/02 00:48:32;;;;;;;48.17;22.97;;;;;;;12.38;63.67;96872.28;5011735;28;20266;-68
2021/04/02 00:51:06;;;;;;;37.87;21.10;;;;;;;12.41;63.35;96873.66;5010912;28;20262;-68
2021/04/02 00:53:34;;;;;;;39.10;21.70;;;;;;;12.39;63.64;96871.25;4993599;28;20202;-69
2021/04/02 00:56:01;;;;;;;34.20;21.97;;;;;;;12.30;64.14;96863.97;5010833;28;20183;-68
2021/04/02 00:58:29;;;;;;;42.17;23.27;;;;;;;12.19;64.57;96864.84;5011476;28;20202;-69
2021/04/02 01:00:55;;;;;;;38.13;22.67;;;;;;;12.07;65.01;96878.81;5010183;28;20195;-68
2021/04/02 01:03:22;;;;;;;37.77;23.50;;;;;;;12.00;65.01;96872.88;5011312;28;20226;-68
2021/04/02 01:05:49;;;;;;;38.50;23.07;;;;;;;11.98;65.50;96879.41;5011108;28;20689;-68
2021/04/02 01:08:18;;;;;;;33.20;22.67;;;;;;;11.81;66.08;96879.34;5011580;28;20661;-68
2021/04/02 01:10:44;;;;;;;38.93;23.53;;;;;;;11.76;66.21;96883.69;4998948;28;20185;-68
2021/04/02 01:13:39;;;;;;;40.13;22.37;;;;;;;11.66;66.66;96876.34;4992539;28;20246;-68
2021/04/02 01:16:12;;;;;;;39.40;22.73;;;;;;;11.62;66.69;96875.22;4993212;28;20180;-69
2021/04/02 01:19:08;;;;;;;38.00;22.43;;;;;;;11.51;67.09;96876.03;5011395;28;20178;-68
2021/04/02 01:21:57;;;;;;;37.90;22.00;;;;;;;11.40;67.52;96872.38;5010875;28;20549;-68
2021/04/02 01:24:22;;;;;;;36.67;22.83;;;;;;;11.38;67.73;96871.81;5010854;28;20175;-68
2021/04/02 01:26:53;;;;;;;35.40;21.03;;;;;;;11.42;67.44;96870.34;5011142;28;20282;-68
2021/04/02 01:29:25;;;;;;;30.50;19.87;;;;;;;11.39;67.34;96864.72;5011472;28;20210;-69
2021/04/02 01:31:55;;;;;;;29.10;19.37;;;;;;;11.22;66.87;96875.91;5010357;28;20187;-67
2021/04/02 01:34:26;;;;;;;29.30;17.90;;;;;;;11.15;66.86;96875.22;4993456;28;20241;-68
2021/04/02 01:36:54;;;;;;;28.23;17.10;;;;;;;11.29;66.61;96864.50;5010682;28;20641;-68
2021/04/02 01:39:20;;;;;;;27.30;16.27;;;;;;;11.20;66.92;96862.22;5011171;28;20230;-70
2021/04/02 01:41:49;;;;;;;26.27;16.50;;;;;;;11.22;66.32;96862.00;5010960;28;20203;-69
2021/04/02 01:44:16;;;;;;;27.67;16.47;;;;;;;11.13;67.02;96866.81;5010519;28;20190;-68
2021/04/02 01:46:43;;;;;;;24.80;14.70;;;;;;;11.01;67.19;96866.00;5011166;28;20179;-69
2021/04/02 01:49:10;;;;;;;24.63;14.23;;;;;;;10.98;67.46;96878.78;5009895;28;20198;-71
2021/04/02 01:51:38;;;;;;;25.83;15.83;;;;;;;10.90;67.49;96879.09;5010502;28;20199;-70
2021/04/02 01:54:05;;;;;;;21.53;14.10;;;;;;;10.94;67.60;96877.59;4991782;28;20180;-69
2021/04/02 01:56:32;;;;;;;19.53;13.37;;;;;;;10.83;67.84;96879.19;5010717;28;20278;-68
2021/04/02 01:58:59;;;;;;;23.77;14.40;;;;;;;10.94;67.57;96875.78;4995835;28;20214;-69
2021/04/02 02:01:32;;;;;;;21.50;14.27;;;;;;;10.79;67.66;96876.22;5011045;28;20227;-68
2021/04/02 02:03:59;;;;;;;20.47;13.77;;;;;;;10.82;67.69;96877.59;5008126;28;20206;-68
2021/04/02 02:06:25;;;;;;;21.30;13.83;;;;;;;10.73;67.89;96877.13;5014587;28;20179;-69
2021/04/02 02:08:55;;;;;;;21.93;13.93;;;;;;;10.78;67.89;96877.25;5014406;28;20175;-68
2021/04/02 02:11:22;;;;;;;22.20;14.20;;;;;;;10.70;68.05;96884.66;4996906;28;20524;-68
2021/04/02 02:13:54;;;;;;;19.73;13.43;;;;;;;10.72;67.74;96886.00;4997063;28;20633;-69
2021/04/02 02:16:21;;;;;;;21.00;12.70;;;;;;;10.77;67.70;96890.56;5014633;28;20233;-69
2021/04/02 02:18:53;;;;;;;23.47;13.20;;;;;;;10.59;68.29;96890.66;5014725;28;20302;-69
2021/04/02 02:21:20;;;;;;;21.33;13.10;;;;;;;10.51;68.64;96883.91;5014585;28;20174;-69
2021/04/02 02:23:46;;;;;;;21.00;12.83;;;;;;;10.48;68.76;96886.19;4980469;28;20537;-68
2021/04/02 02:26:12;;;;;;;20.07;12.73;;;;;;;10.43;68.89;96886.81;5013752;28;20191;-69
2021/04/02 02:28:38;;;;;;;20.67;13.27;;;;;;;10.51;68.91;96883.09;4996339;28;20179;-69
2021/04/02 02:31:06;;;;;;;21.10;13.33;;;;;;;10.43;68.64;96892.88;5013748;28;20198;-69
2021/04/02 02:33:32;;;;;;;21.80;12.57;;;;;;;10.32;69.33;96882.34;5013900;28;20175;-69
2021/04/02 02:35:59;;;;;;;16.97;12.23;;;;;;;10.40;69.13;96872.38;5012882;28;20176;-68
2021/04/02 02:38:25;;;;;;;20.53;11.60;;;;;;;10.39;69.26;96880.44;5013662;28;20175;-69
2021/04/02 02:40:51;;;;;;;18.67;12.30;;;;;;;10.20;69.87;96882.28;5013720;28;20183;-68
2021/04/02 02:43:17;;;;;;;18.27;12.33;;;;;;;10.11;69.95;96888.03;5013858;28;20198;-69
2021/04/02 02:45:42;;;;;;;19.60;12.13;;;;;;;9.98;70.50;96891.59;5014379;28;20211;-69
2021/04/02 02:48:08;;;;;;;18.30;10.83;;;;;;;9.95;70.56;96886.81;5013069;28;20209;-68
2021/04/02 02:50:37;;;;;;;19.30;10.90;;;;;;;10.00;70.78;96890.38;5013576;28;20237;-69
2021/04/02 02:53:05;;;;;;;17.13;11.37;;;;;;;9.94;70.44;96896.50;5012069;28;20186;-69
2021/04/02 02:55:32;;;;;;;17.93;10.50;;;;;;;9.71;71.85;96890.31;4996282;28;20183;-69
2021/04/02 02:58:00;;;;;;;18.43;10.67;;;;;;;9.66;71.51;96882.31;5013408;28;20214;-69
2021/04/02 03:00:34;;;;;;;15.10;9.07;;;;;;;9.66;71.47;96884.94;5013232;28;20222;-69
2021/04/02 03:03:03;;;;;;;14.40;9.43;;;;;;;9.64;71.80;96884.38;4994543;28;20579;-68
2021/04/02 03:05:30;;;;;;;14.87;8.87;;;;;;;9.60;71.84;96884.00;5013816;28;20263;-69
2021/04/02 03:08:00;;;;;;;14.37;10.17;;;;;;;9.52;71.96;96879.88;5012884;28;20183;-68
2021/04/02 03:10:27;;;;;;;12.40;9.17;;;;;;;9.43;72.48;96883.75;5013402;28;20211;-69
2021/04/02 03:12:54;;;;;;;12.20;8.83;;;;;;;9.39;73.07;96882.59;5012631;28;20187;-68
2021/04/02 03:15:22;;;;;;;12.73;9.20;;;;;;;9.45;72.52;96878.31;5013128;28;20234;-69
2021/04/02 03:17:52;;;;;;;12.80;8.60;;;;;;;9.42;72.84;96879.53;5013682;28;20179;-69
2021/04/02 03:20:18;;;;;;;16.60;9.13;;;;;;;9.47;72.24;96877.06;5012572;28;20654;-69
2021/04/02 03:22:45;;;;;;;11.67;8.40;;;;;;;9.32;72.63;96887.09;5013322;28;20198;-70
2021/04/02 03:25:14;;;;;;;11.93;7.70;;;;;;;9.16;73.29;96885.81;4994685;28;20326;-70
2021/04/02 03:27:41;;;;;;;11.37;8.20;;;;;;;9.03;73.62;96878.09;5013093;28;20194;-69
2021/04/02 03:30:08;;;;;;;13.63;6.97;;;;;;;8.92;74.14;96877.97;5012622;28;20183;-69
2021/04/02 03:32:37;;;;;;;10.70;7.23;;;;;;;8.86;74.47;96871.78;5012580;28;20187;-69
2021/04/02 03:35:03;;;;;;;11.77;6.97;;;;;;;8.67;74.89;96873.56;5011810;28;21012;-69
2021/04/02 03:37:33;;;;;;;10.07;7.03;;;;;;;8.74;74.86;96876.94;5003282;28;20182;-69
2021/04/02 03:40:00;;;;;;;10.63;7.17;;;;;;;8.70;75.22;96872.31;5012206;28;20242;-69
2021/04/02 03:42:27;;;;;;;9.53;6.93;;;;;;;8.56;75.58;96871.63;5012743;28;20203;-69
2021/04/02 03:44:53;;;;;;;10.77;7.07;;;;;;;8.57;76.15;96877.66;4995109;28;20183;-69
2021/04/02 03:47:20;;;;;;;10.03;7.53;;;;;;;8.54;75.90;96884.09;5011866;28;20194;-69
2021/04/02 03:49:48;;;;;;;12.00;7.47;;;;;;;8.57;75.67;96880.28;5004296;28;20533;-69
2021/04/02 03:52:18;;;;;;;14.00;8.43;;;;;;;8.59;75.55;96888.69;5010811;28;20193;-69
2021/04/02 03:54:48;;;;;;;13.33;7.20;;;;;;;8.42;75.70;96892.81;4994614;28;20198;-69
2021/04/02 03:57:16;;;;;;;13.37;7.20;;;;;;;8.39;74.38;96888.81;5012106;28;20254;-69
2021/04/02 03:59:44;;;;;;;9.77;6.43;;;;;;;8.33;73.97;96890.44;5012820;28;20186;-69
2021/04/02 04:02:12;;;;;;;10.83;6.50;;;;;;;8.13;74.65;96889.72;4993494;28;20223;-68
2021/04/02 04:04:40;;;;;;;10.30;6.50;;;;;;;8.19;74.34;96893.31;4995775;28;20212;-69
2021/04/02 04:07:08;;;;;;;12.03;6.87;;;;;;;8.07;73.27;96893.19;5005624;28;20271;-69
2021/04/02 04:09:36;;;;;;;9.70;6.10;;;;;;;8.08;72.66;96902.59;5000640;28;20267;-69
2021/04/02 04:12:04;;;;;;;11.77;5.37;;;;;;;8.01;72.71;96893.19;4982867;28;20536;-69
2021/04/02 04:14:31;;;;;;;8.90;5.30;;;;;;;7.91;72.31;96891.03;5008494;28;20262;-69
2021/04/02 04:17:00;;;;;;;9.00;5.50;;;;;;;7.90;72.81;96894.66;5000652;28;20259;-68
2021/04/02 04:19:28;;;;;;;8.03;4.67;;;;;;;7.98;71.60;96904.03;5000375;28;20171;-68
2021/04/02 04:21:55;;;;;;;6.50;4.77;;;;;;;7.79;70.98;96898.72;5005378;28;20183;-69
2021/04/02 04:24:22;;;;;;;10.97;4.47;;;;;;;7.87;70.49;96902.88;5003228;28;20249;-68
2021/04/02 04:26:50;;;;;;;8.47;4.07;;;;;;;7.82;69.74;96898.28;5007594;28;20183;-69
2021/04/02 04:29:31;;;;;;;4.77;3.80;;;;;;;7.81;69.57;96903.69;4999464;28;20746;-69
2021/04/02 04:31:59;;;;;;;4.07;3.67;;;;;;;7.77;69.31;96898.09;4983041;28;20206;-68
2021/04/02 04:34:25;;;;;;;6.33;3.80;;;;;;;7.60;69.46;96896.13;4985909;28;20525;-69
2021/04/02 04:36:54;;;;;;;4.70;3.30;;;;;;;7.39;69.50;96897.19;4997106;28;20242;-69
2021/04/02 04:39:22;;;;;;;5.17;3.50;;;;;;;7.29;69.03;96896.81;4995164;28;20234;-69
2021/04/02 04:41:51;;;;;;;5.43;3.33;;;;;;;7.23;69.02;96888.00;5007763;28;20187;-69
2021/04/02 04:44:18;;;;;;;5.33;3.17;;;;;;;7.23;68.71;96895.00;5006926;28;20183;-69
2021/04/02 04:46:44;;;;;;;4.47;3.10;;;;;;;7.06;68.89;96889.41;5010111;28;20630;-70
2021/04/02 04:49:09;;;;;;;4.83;3.27;;;;;;;7.12;68.56;96896.44;5005665;28;20217;-70
2021/04/02 04:51:36;;;;;;;6.33;3.43;;;;;;;7.05;68.25;96906.84;5000844;28;20195;-69
2021/04/02 04:54:04;;;;;;;4.27;2.97;;;;;;;7.07;68.31;96904.88;4999077;28;20531;-69
2021/04/02 04:56:31;;;;;;;4.97;3.00;;;;;;;7.01;68.08;96907.47;5000153;28;20211;-69
2021/04/02 04:59:00;;;;;;;3.80;3.00;;;;;;;6.87;68.83;96898.03;5005494;28;20179;-68
2021/04/02 05:01:29;;;;;;;5.03;2.80;;;;;;;6.92;68.10;96908.66;4984553;28;20237;-69
2021/04/02 05:03:56;;;;;;;6.70;3.17;;;;;;;6.88;68.40;96908.25;4996718;28;20191;-69
2021/04/02 05:06:24;;;;;;;5.77;2.97;;;;;;;6.81;68.71;96909.25;5003159;28;20172;-69
2021/04/02 05:08:52;;;;;;;3.87;2.80;;;;;;;6.78;69.12;96899.22;5006971;28;20533;-69
2021/04/02 05:11:20;;;;;;;5.40;3.37;;;;;;;6.80;68.96;96899.84;4994892;28;20187;-69
2021/04/02 05:13:48;;;;;;;5.63;3.00;;;;;;;6.89;68.75;96903.84;4979153;28;20229;-70
2021/04/02 05:16:13;;;;;;;6.07;3.00;;;;;;;6.94;68.74;96909.25;4992190;28;20298;-70
2021/04/02 05:18:40;;;;;;;6.17;2.90;;;;;;;6.87;68.60;96913.66;5005559;28;20254;-70
2021/04/02 05:21:06;;;;;;;6.13;3.10;;;;;;;7.10;68.26;96916.66;4996052;28;20678;-70
2021/04/02 05:23:32;;;;;;;6.43;3.03;;;;;;;6.95;68.19;96910.88;4993854;28;20655;-70
2021/04/02 05:25:58;;;;;;;4.53;2.63;;;;;;;6.93;68.10;96916.28;5002614;28;20186;-68
2021/04/02 05:28:23;;;;;;;3.57;2.57;;;;;;;6.88;68.04;96925.69;5008061;28;20168;-70
2021/04/02 05:30:50;;;;;;;4.43;3.10;;;;;;;6.89;67.77;96933.31;4982004;28;20215;-70
2021/04/02 05:33:15;;;;;;;2.97;2.60;;;;;;;7.03;67.24;96929.69;4984479;28;20203;-69
2021/04/02 05:35:41;;;;;;;5.33;2.80;;;;;;;7.04;67.05;96920.06;5003243;28;20203;-70
2021/04/02 05:38:06;;;;;;;5.73;2.70;;;;;;;6.92;67.62;96932.09;5006510;28;20210;-69
2021/04/02 05:40:32;;;;;;;4.20;2.97;;;;;;;7.04;67.18;96931.31;5007697;28;20622;-69
2021/04/02 05:43:37;;;;;;;5.03;3.00;;;;;;;6.94;67.11;96940.53;5004060;28;20666;-68
2021/04/02 05:46:03;;;;;;;9.53;3.37;;;;;;;7.03;67.33;96940.13;4912021;29;20238;-70
2021/04/02 05:48:32;;;;;;;3.50;3.20;;;;;;;7.04;67.18;96940.94;4918692;29;20186;-69
2021/04/02 05:50:59;;;;;;;6.10;3.50;;;;;;;7.15;66.60;96937.72;4917063;29;20198;-69
2021/04/02 05:53:28;;;;;;;5.37;3.27;;;;;;;7.10;67.00;96937.53;4919077;29;20201;-70
2021/04/02 05:55:55;;;;;;;4.20;3.50;;;;;;;7.20;66.47;96939.72;4921008;29;20182;-69
2021/04/02 05:58:21;;;;;;;8.03;3.50;;;;;;;7.59;65.32;96944.09;4931297;29;20201;-72
2021/04/02 06:00:47;;;;;;;5.23;3.47;;;;;;;7.87;64.05;96940.22;4926384;29;20178;-70
2021/04/02 06:03:17;;;;;;;3.57;3.00;;;;;;;8.07;63.35;96947.19;4934264;29;20221;-70
2021/04/02 06:05:42;;;;;;;5.73;3.27;;;;;;;8.09;63.23;96943.34;4918755;29;20179;-70
2021/04/02 06:08:10;;;;;;;5.00;3.43;;;;;;;7.70;64.40;96951.28;4934040;29;20608;-71
2021/04/02 06:10:35;;;;;;;6.60;3.50;;;;;;;7.79;63.82;96937.84;4935054;29;20202;-71
2021/04/02 06:13:01;;;;;;;6.93;3.80;;;;;;;7.93;63.94;96934.16;4934070;29;20540;-69
2021/04/02 06:15:31;;;;;;;5.43;3.97;;;;;;;7.78;63.94;96935.44;4934569;29;20194;-69
2021/04/02 06:18:00;;;;;;;5.30;4.13;;;;;;;7.68;64.48;96927.22;4968953;28;20188;-69
2021/04/02 06:20:50;;;;;;;7.10;3.90;;;;;;;7.95;63.64;96939.19;4994525;28;20642;-69
2021/04/02 06:23:23;;;;;;;5.10;3.53;;;;;;;8.16;63.32;96936.28;4989127;28;20263;-69
2021/04/02 06:25:54;;;;;;;6.03;4.00;;;;;;;8.47;62.29;96932.94;4980173;28;20295;-69
2021/04/02 06:28:25;;;;;;;6.13;4.33;;;;;;;8.74;61.17;96937.03;4994371;28;20169;-69
2021/04/02 06:31:11;;;;;;;5.67;4.00;;;;;;;8.26;62.57;96935.84;4994686;28;20542;-69
2021/04/02 06:33:42;;;;;;;4.67;3.60;;;;;;;8.73;61.02;96930.19;4994792;28;20270;-69
2021/04/02 06:36:15;;;;;;;7.80;4.90;;;;;;;8.73;61.09;96935.44;4994115;28;20180;-69
2021/04/02 06:38:43;;;;;;;8.33;4.63;;;;;;;8.62;61.17;96932.69;4994559;28;20271;-69
2021/04/02 06:41:10;;;;;;;5.13;4.40;;;;;;;8.24;62.05;96930.84;4976325;28;20180;-70
2021/04/02 06:43:46;;;;;;;6.90;4.67;;;;;;;7.87;63.75;96950.66;4994291;28;20215;-69
2021/04/02 06:46:19;;;;;;;8.47;4.70;;;;;;;7.77;63.96;96952.88;4993994;28;20171;-69
2021/04/02 06:48:44;;;;;;;5.40;4.47;;;;;;;7.63;64.41;96940.88;4985527;28;20273;-69
2021/04/02 06:51:19;;;;;;;7.73;5.07;;;;;;;7.72;64.23;96951.91;4982051;28;20192;-69
2021/04/02 06:53:46;;;;;;;6.97;4.83;;;;;;;7.99;63.81;96956.03;4994009;28;20171;-69
2021/04/02 06:56:14;;;;;;;6.13;4.60;;;;;;;8.19;62.66;96948.16;4993240;28;20188;-70
2021/04/02 06:58:41;;;;;;;5.33;4.27;;;;;;;8.34;62.38;96956.53;4976448;28;20175;-69
2021/04/02 07:01:08;;;;;;;9.00;4.67;;;;;;;8.63;61.68;96945.56;4996826;28;20223;-69
2021/04/02 07:03:35;;;;;;;6.10;4.63;;;;;;;8.45;61.87;96955.88;4996387;28;20584;-69
2021/04/02 07:06:03;;;;;;;5.30;4.50;;;;;;;8.39;62.23;96958.53;4995026;28;20570;-70
2021/04/02 07:08:30;;;;;;;5.93;5.07;;;;;;;8.52;61.67;96959.28;5013891;28;20178;-70
2021/04/02 07:10:57;;;;;;;7.23;4.70;;;;;;;8.21;62.04;96959.97;5013256;28;20189;-70
2021/04/02 07:13:26;;;;;;;5.13;4.40;;;;;;;8.40;62.03;96960.13;4994606;28;20192;-70
2021/04/02 07:15:52;;;;;;;6.53;4.57;;;;;;;8.10;63.02;96963.22;5005307;28;20209;-69
2021/04/02 07:18:18;;;;;;;5.10;4.07;;;;;;;8.25;62.48;96961.16;5005311;28;20646;-70
2021/04/02 07:20:45;;;;;;;8.43;4.57;;;;;;;8.44;62.15;96962.13;5013772;28;20179;-69
2021/04/02 07:23:12;;;;;;;6.47;4.67;;;;;;;8.69;61.08;96959.59;5012518;28;20203;-69
2021/04/02 07:25:37;;;;;;;8.03;5.30;;;;;;;8.57;61.85;96964.66;4995779;28;20286;-70
2021/04/02 07:28:05;;;;;;;7.50;5.60;;;;;;;8.18;62.13;96970.84;5012366;28;20255;-70
2021/04/02 07:30:32;;;;;;;7.07;5.80;;;;;;;7.91;63.76;96969.31;5012356;28;20175;-70
2021/04/02 07:37:59;;;;;;;7.60;5.20;;;;;;;8.22;63.41;96966.81;5188143;23;20252;-71
2021/04/02 07:40:33;;;;;;;6.50;5.60;;;;;;;8.26;63.46;96969.78;4935846;29;20250;-71
2021/04/02 07:43:01;;;;;;;7.70;6.27;;;;;;;8.23;63.19;96973.63;4935099;29;20208;-69
2021/04/02 07:45:31;;;;;;;9.23;5.63;;;;;;;7.97;64.10;96967.69;4911903;29;20194;-66
2021/04/02 07:48:14;;;;;;;9.63;5.77;;;;;;;8.33;63.37;96976.63;4922354;29;20791;-69
2021/04/02 07:50:47;;;;;;;6.53;5.77;;;;;;;8.39;63.27;96975.00;4929583;29;20195;-72
2021/04/02 07:53:39;;;;;;;7.47;5.37;;;;;;;8.43;62.90;96972.75;4932592;29;20194;-70
2021/04/02 07:56:12;;;;;;;7.10;5.60;;;;;;;8.27;63.70;96977.41;4934798;29;20193;-70
2021/04/02 07:58:45;;;;;;;6.30;5.50;;;;;;;8.23;63.82;96976.25;4935080;29;20178;-72
2021/04/02 08:01:11;;;;;;;8.23;6.40;;;;;;;8.44;63.38;96987.44;4935007;29;20637;-70
2021/04/02 08:03:36;;;;;;;8.57;6.40;;;;;;;8.33;63.19;96987.06;4934820;29;20269;-71
2021/04/02 08:06:08;;;;;;;7.47;6.07;;;;;;;8.54;63.11;96974.72;4933663;29;20197;-71
2021/04/02 08:08:43;;;;;;;8.17;5.90;;;;;;;8.67;62.54;96975.47;4914204;29;20301;-71
2021/04/02 08:11:10;;;;;;;6.50;5.77;;;;;;;8.79;62.35;96987.88;4934045;29;20185;-71
2021/04/02 08:13:58;;;;;;;7.40;5.63;;;;;;;8.69;62.61;96990.94;4934684;29;20193;-71
2021/04/02 08:16:36;;;;;;;9.53;6.60;;;;;;;8.65;62.76;96979.28;4934789;29;20186;-74
2021/04/02 08:19:07;;;;;;;8.00;6.40;;;;;;;8.60;62.99;96979.91;4934160;29;20648;-73
2021/04/02 08:21:39;;;;;;;7.07;6.03;;;;;;;8.73;63.10;96979.84;4918216;29;20193;-71
2021/04/02 08:24:06;;;;;;;6.50;5.90;;;;;;;8.60;63.12;96973.88;4934766;29;20213;-74
2021/04/02 08:26:33;;;;;;;7.87;6.37;;;;;;;8.67;62.73;96978.06;4935040;29;20250;-73
2021/04/02 08:29:00;;;;;;;8.00;6.40;;;;;;;8.91;62.80;96976.53;4933852;29;20193;-71
2021/04/02 08:31:25;;;;;;;7.77;6.70;;;;;;;8.65;63.09;96977.47;4934367;29;20194;-71
2021/04/02 08:33:57;;;;;;;9.13;6.70;;;;;;;8.89;62.66;96978.53;4934108;29;20660;-72
2021/04/02 08:36:24;;;;;;;8.03;6.13;;;;;;;8.81;62.48;96978.78;4933641;29;20217;-71
2021/04/02 08:38:50;;;;;;;8.57;6.53;;;;;;;8.73;62.86;96974.63;4933163;29;20238;-72
2021/04/02 08:41:21;;;;;;;8.63;6.57;;;;;;;9.04;62.88;96979.03;4934469;29;20186;-72
2021/04/02 08:43:47;;;;;;;9.27;6.60;;;;;;;8.86;62.46;96984.19;4933550;29;20205;-72
2021/04/02 08:46:14;;;;;;;9.13;6.80;;;;;;;8.91;62.59;96980.97;4934106;29;20202;-72
2021/04/02 08:48:40;;;;;;;9.37;7.13;;;;;;;8.86;62.72;96989.41;4934211;29;20214;-72
2021/04/02 08:51:05;;;;;;;8.20;7.10;;;;;;;8.88;62.65;96982.16;4933457;29;20277;-71
2021/04/02 08:53:41;;;;;;;8.13;7.00;;;;;;;9.08;62.72;96989.91;4934748;29;20278;-72
2021/04/02 08:56:06;;;;;;;8.33;7.03;;;;;;;9.14;62.43;96975.94;4933958;29;20276;-72
2021/04/02 08:58:34;;;;;;;9.60;7.37;;;;;;;9.10;62.19;96982.63;4934559;29;20596;-71
2021/04/02 09:01:01;;;;;;;8.50;6.90;;;;;;;8.93;62.87;96984.16;4933502;29;20272;-72
2021/04/02 09:03:27;;;;;;;9.70;7.53;;;;;;;9.00;63.05;96979.69;4918882;29;20266;-72
2021/04/02 09:05:53;;;;;;;8.40;7.17;;;;;;;9.42;61.83;96971.09;4933430;29;20190;-72
2021/04/02 09:08:20;;;;;;;10.10;7.73;;;;;;;9.71;60.84;96974.06;4934393;29;20233;-72
2021/04/02 09:10:47;;;;;;;7.67;6.87;;;;;;;9.49;61.35;96974.47;4932844;29;20189;-72
2021/04/02 09:13:12;;;;;;;10.17;6.90;;;;;;;9.41;62.21;96982.59;4916635;29;20265;-71
2021/04/02 09:15:38;;;;;;;8.80;7.83;;;;;;;9.42;61.66;96972.91;4934233;29;20186;-72
2021/04/02 09:18:17;;;;;;;9.93;7.90;;;;;;;9.31;61.92;96966.56;4928517;29;20194;-72
2021/04/02 09:20:44;;;;;;;11.53;7.70;;;;;;;9.33;62.35;96969.78;4930411;29;20229;-72
2021/04/02 09:23:11;;;;;;;10.10;7.57;;;;;;;9.19;62.90;96961.22;4933747;29;20719;-72
2021/04/02 09:25:42;;;;;;;9.20;7.47;;;;;;;9.49;61.76;96974.47;4934020;29;20186;-72
2021/04/02 09:28:08;;;;;;;8.67;7.30;;;;;;;9.67;61.33;96978.13;4934454;29;20189;-72
2021/04/02 09:30:33;;;;;;;10.37;7.50;;;;;;;10.09;60.79;96964.19;4934071;29;20629;-72
2021/04/02 09:32:59;;;;;;;9.87;7.30;;;;;;;9.87;60.64;96973.50;4932949;29;20202;-72
2021/04/02 09:35:25;;;;;;;8.20;6.93;;;;;;;9.77;60.75;96970.59;4933842;29;20216;-71
2021/04/02 09:37:51;;;;;;;8.87;7.87;;;;;;;9.98;60.47;96970.16;4938874;29;20313;-71
2021/04/02 09:40:17;;;;;;;7.93;7.00;;;;;;;10.42;59.53;96971.72;4935176;29;20249;-71
2021/04/02 09:42:47;;;;;;;9.80;7.23;;;;;;;10.83;57.76;96973.59;4952080;29;20205;-72
2021/04/02 09:45:13;;;;;;;8.63;7.47;;;;;;;11.05;57.20;96968.63;4952087;29;20264;-71
2021/04/02 09:47:46;;;;;;;9.50;7.40;;;;;;;10.87;56.95;96972.09;4952782;29;20216;-72
2021/04/02 09:50:15;;;;;;;8.70;7.10;;;;;;;10.41;58.30;96983.22;4952961;29;20187;-70
2021/04/02 09:52:43;;;;;;;9.83;6.93;;;;;;;10.40;57.61;96982.41;4952689;29;20193;-72
2021/04/02 09:55:09;;;;;;;8.03;7.23;;;;;;;10.51;57.84;96986.13;4952423;29;20189;-71
2021/04/02 09:57:35;;;;;;;9.50;7.80;;;;;;;10.35;58.29;96979.66;4953132;29;20643;-72
2021/04/02 10:00:01;;;;;;;8.80;7.67;;;;;;;10.23;58.88;96980.59;4942857;29;20198;-73
2021/04/02 10:02:26;;;;;;;9.97;7.63;;;;;;;10.26;59.30;96977.53;4938302;29;20201;-72
2021/04/02 10:04:52;;;;;;;9.50;7.70;;;;;;;10.20;58.70;96973.97;4943039;29;20186;-71
2021/04/02 10:07:18;;;;;;;8.23;7.23;;;;;;;10.15;58.95;96967.75;4950072;29;20177;-72
2021/04/02 10:09:44;;;;;;;9.03;7.13;;;;;;;10.18;58.40;96983.88;4950910;29;20244;-71
2021/04/02 10:12:10;;;;;;;10.90;7.73;;;;;;;9.89;58.39;96981.94;4932590;29;20394;-73
2021/04/02 10:14:35;;;;;;;9.63;7.33;;;;;;;9.92;56.50;96974.44;4948210;29;20193;-71
2021/04/02 10:17:01;;;;;;;8.53;7.30;;;;;;;10.03;57.01;96972.91;4951150;29;20181;-72
2021/04/02 10:19:26;;;;;;;8.27;7.27;;;;;;;10.08;56.78;96973.09;4948637;29;20186;-71
2021/04/02 10:21:51;;;;;;;10.10;6.87;;;;;;;10.00;56.13;96962.91;4925044;28;20610;-72
2021/04/02 10:24:17;;;;;;;7.70;6.90;;;;;;;10.18;55.90;96962.94;4955303;29;20240;-72
2021/04/02 10:26:43;;;;;;;8.20;6.50;;;;;;;10.53;55.22;96955.25;4954844;29;20185;-72
2021/04/02 10:29:09;;;;;;;8.37;6.87;;;;;;;10.37;56.18;96966.31;4955323;29;20181;-75
2021/04/02 10:31:35;;;;;;;7.97;6.70;;;;;;;10.68;55.81;96973.19;4954933;29;20232;-72
2021/04/02 10:34:01;;;;;;;7.43;6.63;;;;;;;10.54;55.72;96969.13;4954680;29;20201;-72
2021/04/02 10:36:26;;;;;;;10.67;7.13;;;;;;;10.88;55.02;96962.41;4955052;29;20507;-72
2021/04/02 10:38:52;;;;;;;7.37;6.67;;;;;;;10.72;54.69;96956.78;4939603;29;20700;-72
2021/04/02 10:41:17;;;;;;;9.90;7.33;;;;;;;10.68;54.66;96962.72;4936228;29;20194;-72
2021/04/02 10:43:43;;;;;;;8.10;7.30;;;;;;;10.47;55.56;96965.81;4936168;29;20213;-72
2021/04/02 10:46:08;;;;;;;9.13;7.53;;;;;;;10.20;56.23;96965.31;4936394;29;20186;-72
2021/04/02 10:48:35;;;;;;;9.23;7.20;;;;;;;10.19;56.12;96963.72;4919517;29;20187;-73
2021/04/02 10:51:02;;;;;;;8.33;7.40;;;;;;;10.36;56.15;96954.25;4935187;29;20186;-72
2021/04/02 10:53:27;;;;;;;8.97;6.77;;;;;;;10.60;55.98;96950.69;4935719;29;20244;-71
2021/04/02 10:55:53;;;;;;;9.40;7.43;;;;;;;10.37;55.84;96958.44;4932648;29;20664;-74
2021/04/02 10:58:20;;;;;;;9.57;8.40;;;;;;;10.67;55.47;96954.03;4923509;29;20629;-72
2021/04/02 11:00:45;;;;;;;11.07;7.20;;;;;;;10.63;55.61;96952.09;4935657;29;20224;-74
2021/04/02 11:03:11;;;;;;;8.70;7.17;;;;;;;10.72;54.57;96954.16;4935438;29;20518;-73
2021/04/02 11:05:36;;;;;;;8.80;7.90;;;;;;;10.79;54.25;96956.69;4918406;29;20198;-75
2021/04/02 11:08:02;;;;;;;9.17;7.07;;;;;;;10.97;53.58;96954.03;4917880;29;20277;-74
2021/04/02 11:10:27;;;;;;;7.57;6.83;;;;;;;11.07;52.76;96949.03;4935111;29;20735;-74
2021/04/02 11:12:53;;;;;;;9.53;8.53;;;;;;;10.63;54.90;96947.66;4935166;29;20217;-74
2021/04/02 11:15:19;;;;;;;7.83;7.03;;;;;;;10.42;55.41;96950.75;4935652;29;20186;-73
2021/04/02 11:17:46;;;;;;;10.07;7.93;;;;;;;10.57;54.22;96950.34;4935296;29;20236;-70
2021/04/02 11:20:14;;;;;;;9.93;7.50;;;;;;;10.42;54.68;96954.16;4934837;29;20204;-74
2021/04/02 11:22:40;;;;;;;8.40;7.50;;;;;;;10.54;55.10;96951.59;4935280;29;20202;-74
2021/04/02 11:25:07;;;;;;;8.80;7.90;;;;;;;10.42;54.49;96951.53;4933904;29;20201;-75
2021/04/02 11:27:33;;;;;;;9.03;7.50;;;;;;;10.57;53.82;96951.16;4935107;29;20198;-75
2021/04/02 11:29:59;;;;;;;8.07;7.27;;;;;;;10.55;54.09;96937.47;4934579;29;20198;-75
2021/04/02 11:32:24;;;;;;;9.50;6.90;;;;;;;10.68;50.25;96939.91;4910045;29;20197;-74
2021/04/02 11:34:49;;;;;;;7.80;7.00;;;;;;;10.74;49.96;96935.59;4926826;29;20529;-77
2021/04/02 11:37:15;;;;;;;8.20;7.40;;;;;;;10.48;53.35;96949.06;4934232;29;20190;-77
2021/04/02 11:39:41;;;;;;;7.40;6.60;;;;;;;10.31;53.20;96939.19;4934194;29;20183;-75
2021/04/02 11:42:07;;;;;;;8.10;7.03;;;;;;;10.27;51.45;96940.66;4934338;29;20196;-77
2021/04/02 11:44:33;;;;;;;6.83;6.13;;;;;;;10.41;50.10;96936.06;4935103;29;20189;-77